Time;durP1;ratioP1;P1;durP2;ratioP2;P2;SDS_P1;SDS_P2;PMS_P1;PMS_P2;Temp;Humidity;BMP_temperature;BMP_pressure;BME280_temperature;BME280_humidity;BME280_pressure;Samples;Min_cycle;Max_cycle;Signal;HPM_P1;HPM_P2
2021/08/19 00:00:32;;;;;;;0.70;0.70;;;;;;;17.45;99.87;98228.41;5052975;28;20231;-63
2021/08/19 00:02:59;;;;;;;0.87;0.80;;;;;;;17.44;99.65;98235.56;5053054;28;20586;-63
2021/08/19 00:05:27;;;;;;;1.07;0.87;;;;;;;17.41;99.76;98229.69;5053259;28;20211;-63
2021/08/19 00:07:53;;;;;;;1.77;0.90;;;;;;;17.39;99.08;98231.66;5053258;28;20223;-63
2021/08/19 00:10:20;;;;;;;1.17;0.87;;;;;;;17.39;99.14;98216.50;5052925;28;20220;-63
2021/08/19 00:12:46;;;;;;;1.30;0.77;;;;;;;17.36;99.39;98223.91;5053228;28;20212;-63
2021/08/19 00:15:13;;;;;;;0.70;0.70;;;;;;;17.39;99.27;98218.31;5053163;28;20208;-63
2021/08/19 00:17:41;;;;;;;1.10;0.90;;;;;;;17.38;99.51;98212.13;5052981;28;20231;-63
2021/08/19 00:20:09;;;;;;;1.27;0.80;;;;;;;17.40;99.35;98212.84;5052987;28;20256;-63
2021/08/19 00:22:37;;;;;;;0.90;0.90;;;;;;;17.37;99.60;98214.94;5051102;28;20219;-63
2021/08/19 00:25:04;;;;;;;1.00;0.90;;;;;;;17.35;99.49;98209.72;5053002;28;20209;-63
2021/08/19 00:27:31;;;;;;;1.43;1.03;;;;;;;17.33;99.46;98217.03;5059967;28;20566;-63
2021/08/19 00:29:58;;;;;;;0.97;0.80;;;;;;;17.34;99.58;98208.03;5072981;28;20230;-63
2021/08/19 00:32:24;;;;;;;0.83;0.73;;;;;;;17.33;100.00;98208.19;5073020;28;20215;-63
2021/08/19 00:34:51;;;;;;;0.90;0.90;;;;;;;17.33;99.89;98210.84;5072852;28;20239;-63
2021/08/19 00:37:17;;;;;;;0.80;0.80;;;;;;;17.33;99.88;98211.69;5072955;28;20207;-63
2021/08/19 00:39:47;;;;;;;0.97;0.90;;;;;;;17.34;100.00;98200.03;5072911;28;20617;-63
2021/08/19 00:42:15;;;;;;;0.90;0.90;;;;;;;17.36;100.00;98205.19;5072991;28;20211;-63
2021/08/19 00:44:42;;;;;;;1.03;0.80;;;;;;;17.36;100.00;98200.72;5072958;28;20219;-63
2021/08/19 00:47:10;;;;;;;0.80;0.80;;;;;;;17.33;100.00;98195.69;5071287;28;20207;-63
2021/08/19 00:49:37;;;;;;;0.73;0.73;;;;;;;17.35;100.00;98191.00;5072967;28;20207;-63
2021/08/19 00:52:05;;;;;;;1.03;0.83;;;;;;;17.35;99.96;98198.16;5072663;28;20216;-63
2021/08/19 00:54:31;;;;;;;0.80;0.80;;;;;;;17.37;99.91;98197.06;5072576;28;20212;-63
2021/08/19 00:57:00;;;;;;;1.33;1.00;;;;;;;17.34;99.99;98196.50;5072713;28;20673;-63
2021/08/19 00:59:27;;;;;;;1.30;1.00;;;;;;;17.34;99.92;98186.66;5072154;28;20241;-63
2021/08/19 01:01:54;;;;;;;1.30;0.80;;;;;;;17.36;99.50;98195.38;5058521;28;20677;-63
2021/08/19 01:04:21;;;;;;;1.17;1.07;;;;;;;17.33;99.44;98187.66;5068616;28;20207;-63
2021/08/19 01:06:47;;;;;;;1.00;0.90;;;;;;;17.36;99.57;98189.16;5058186;28;20208;-63
2021/08/19 01:09:14;;;;;;;1.30;1.10;;;;;;;17.36;99.44;98187.34;5062864;28;20224;-63
2021/08/19 01:11:42;;;;;;;0.80;0.80;;;;;;;17.38;99.44;98193.41;5065801;28;20223;-63
2021/08/19 01:14:11;;;;;;;1.10;0.90;;;;;;;17.38;99.07;98187.25;5072313;28;20211;-63
2021/08/19 01:16:37;;;;;;;0.80;0.80;;;;;;;17.39;99.27;98189.78;5076033;28;20695;-63
2021/08/19 01:19:04;;;;;;;1.10;1.00;;;;;;;17.36;99.55;98198.03;5076077;28;20207;-63
2021/08/19 01:21:31;;;;;;;0.83;0.83;;;;;;;17.33;100.00;98194.81;5076117;28;20218;-63
2021/08/19 01:23:58;;;;;;;0.80;0.80;;;;;;;17.32;100.00;98193.97;5076421;28;20567;-63
2021/08/19 01:26:25;;;;;;;1.00;1.00;;;;;;;17.34;100.00;98194.69;5076333;28;20207;-63
2021/08/19 01:28:55;;;;;;;1.00;0.90;;;;;;;17.33;99.50;98195.69;5075852;28;20204;-63
2021/08/19 01:31:24;;;;;;;0.90;0.80;;;;;;;17.32;99.68;98193.97;5076198;28;20216;-63
2021/08/19 01:33:50;;;;;;;1.27;1.03;;;;;;;17.28;100.00;98192.59;5075965;28;20214;-63
2021/08/19 01:36:17;;;;;;;1.63;1.10;;;;;;;17.30;100.00;98195.94;5075835;28;20211;-63
2021/08/19 01:38:46;;;;;;;1.20;1.10;;;;;;;17.29;100.00;98194.28;5075076;28;20294;-63
2021/08/19 01:41:13;;;;;;;0.90;0.90;;;;;;;17.30;100.00;98195.94;5075121;28;20731;-63
2021/08/19 01:43:40;;;;;;;1.30;1.20;;;;;;;17.31;100.00;98196.81;5076056;28;20211;-63
2021/08/19 01:46:09;;;;;;;1.37;1.27;;;;;;;17.29;100.00;98178.25;5075534;28;20212;-63
2021/08/19 01:48:36;;;;;;;3.70;1.17;;;;;;;17.29;100.00;98193.41;5076235;28;20222;-63
2021/08/19 01:51:03;;;;;;;1.60;1.10;;;;;;;17.29;100.00;98185.41;5075912;28;20211;-63
2021/08/19 01:53:29;;;;;;;1.30;1.10;;;;;;;17.29;100.00;98188.06;5075527;28;20213;-63
2021/08/19 01:55:56;;;;;;;1.20;1.10;;;;;;;17.27;100.00;98190.91;5075791;28;20215;-63
2021/08/19 01:58:22;;;;;;;1.87;1.20;;;;;;;17.25;100.00;98187.53;5075458;28;20204;-63
2021/08/19 02:00:49;;;;;;;1.23;1.03;;;;;;;17.25;100.00;98187.53;5075404;28;20239;-63
2021/08/19 02:03:17;;;;;;;1.30;1.20;;;;;;;17.22;100.00;98182.50;5075630;28;20214;-63
2021/08/19 02:05:48;;;;;;;1.47;1.37;;;;;;;17.23;100.00;98177.97;5073578;28;20693;-63
2021/08/19 02:08:14;;;;;;;1.57;1.40;;;;;;;17.24;100.00;98185.84;5075560;28;20215;-63
2021/08/19 02:10:41;;;;;;;3.23;1.30;;;;;;;17.23;100.00;98199.34;5075270;28;20203;-63
2021/08/19 02:13:07;;;;;;;1.53;1.30;;;;;;;17.22;100.00;98182.50;5075446;28;20215;-63
2021/08/19 02:15:34;;;;;;;1.87;1.37;;;;;;;17.23;100.00;98186.84;5075090;28;20212;-63
2021/08/19 02:18:00;;;;;;;1.70;1.40;;;;;;;17.22;100.00;98182.50;5075137;28;20204;-63
2021/08/19 02:20:28;;;;;;;1.60;1.50;;;;;;;17.20;100.00;98179.09;5075222;28;20231;-63
2021/08/19 02:22:58;;;;;;;1.70;1.60;;;;;;;17.20;100.00;98178.28;5074957;28;20212;-63
2021/08/19 02:25:25;;;;;;;1.67;1.50;;;;;;;17.21;100.00;98179.97;5074736;28;20265;-63
2021/08/19 02:27:52;;;;;;;1.80;1.50;;;;;;;17.21;100.00;98174.63;5074746;28;20208;-63
2021/08/19 02:30:18;;;;;;;1.53;1.43;;;;;;;17.24;100.00;98180.50;5075107;28;20223;-63
2021/08/19 02:32:45;;;;;;;1.70;1.60;;;;;;;17.22;100.00;98179.81;5073462;28;20212;-63
2021/08/19 02:35:11;;;;;;;1.47;1.37;;;;;;;17.22;100.00;98187.84;5074896;28;20314;-63
2021/08/19 02:37:39;;;;;;;2.23;1.53;;;;;;;17.19;100.00;98172.09;5074940;28;20218;-63
2021/08/19 02:40:07;;;;;;;1.83;1.70;;;;;;;17.16;100.00;98177.72;5074945;28;20239;-63
2021/08/19 02:42:34;;;;;;;1.80;1.70;;;;;;;17.18;100.00;98173.06;5074753;28;20207;-63
2021/08/19 02:45:00;;;;;;;1.70;1.60;;;;;;;17.18;100.00;98169.59;5075054;28;20204;-63
2021/08/19 02:47:27;;;;;;;1.50;1.40;;;;;;;17.16;100.00;98172.38;5074728;28;20677;-63
2021/08/19 02:49:53;;;;;;;1.57;1.47;;;;;;;17.17;100.00;98167.88;5074723;28;20238;-64
2021/08/19 02:52:21;;;;;;;2.73;1.73;;;;;;;17.16;100.00;98177.72;5074544;28;20553;-63
2021/08/19 02:54:49;;;;;;;1.57;1.47;;;;;;;17.17;100.00;98167.88;5074751;28;20215;-64
2021/08/19 02:57:15;;;;;;;1.90;1.80;;;;;;;17.16;100.00;98166.19;5072947;28;20211;-64
2021/08/19 02:59:42;;;;;;;2.17;1.60;;;;;;;17.11;100.00;98163.09;5074234;28;20203;-63
2021/08/19 03:02:09;;;;;;;1.80;1.53;;;;;;;17.12;100.00;98167.50;5074258;28;20203;-64
2021/08/19 03:04:35;;;;;;;1.93;1.83;;;;;;;17.08;100.00;98164.25;5074174;28;21287;-64
2021/08/19 03:07:01;;;;;;;3.67;1.60;;;;;;;17.07;100.00;98172.41;5074522;28;20568;-64
2021/08/19 03:09:28;;;;;;;1.60;1.50;;;;;;;17.05;100.00;98164.53;5074379;28;20207;-64
2021/08/19 03:11:56;;;;;;;1.90;1.80;;;;;;;17.06;100.00;98168.06;5073934;28;20672;-64
2021/08/19 03:14:22;;;;;;;2.00;1.80;;;;;;;17.07;100.00;98161.75;5074347;28;20208;-64
2021/08/19 03:16:49;;;;;;;2.00;1.80;;;;;;;17.05;100.00;98158.34;5074236;28;20215;-64
2021/08/19 03:19:15;;;;;;;2.00;1.80;;;;;;;17.05;100.00;98158.34;5073962;28;20203;-64
2021/08/19 03:21:43;;;;;;;1.80;1.70;;;;;;;17.06;100.00;98150.19;5073729;28;20235;-64
2021/08/19 03:24:09;;;;;;;2.53;1.73;;;;;;;17.08;100.00;98147.38;5072207;28;20245;-64
2021/08/19 03:26:36;;;;;;;3.57;1.53;;;;;;;17.04;100.00;98157.53;5073761;28;20576;-64
2021/08/19 03:29:03;;;;;;;1.97;1.80;;;;;;;17.03;100.00;98155.00;5073750;28;20204;-64
2021/08/19 03:31:30;;;;;;;1.67;1.57;;;;;;;17.02;100.00;98170.16;5073946;28;20207;-64
2021/08/19 03:33:57;;;;;;;1.97;1.77;;;;;;;16.98;100.00;98168.78;5073337;28;20211;-64
2021/08/19 03:36:25;;;;;;;2.30;1.70;;;;;;;17.00;100.00;98161.47;5073259;28;20601;-64
2021/08/19 03:38:51;;;;;;;2.00;1.90;;;;;;;16.94;100.00;98156.69;5073762;28;20211;-64
2021/08/19 03:41:18;;;;;;;1.77;1.67;;;;;;;16.98;100.00;98159.91;5073678;28;20231;-64
2021/08/19 03:43:46;;;;;;;2.03;1.70;;;;;;;16.99;100.00;98159.78;5073487;28;20207;-64
2021/08/19 03:46:14;;;;;;;1.73;1.63;;;;;;;17.01;100.00;98156.97;5073324;28;20227;-64
2021/08/19 03:48:40;;;;;;;1.80;1.70;;;;;;;17.00;100.00;98166.81;5072722;28;20211;-64
2021/08/19 03:51:09;;;;;;;1.80;1.67;;;;;;;17.04;100.00;98162.00;5072556;28;20211;-64
2021/08/19 03:53:36;;;;;;;1.50;1.40;;;;;;;17.05;100.00;98159.19;5073182;28;20243;-64
2021/08/19 03:56:02;;;;;;;1.83;1.60;;;;;;;17.06;100.00;98155.53;5073495;28;20265;-64
2021/08/19 03:58:29;;;;;;;1.60;1.50;;;;;;;17.07;100.00;98157.22;5073377;28;20207;-64
2021/08/19 04:00:55;;;;;;;1.70;1.60;;;;;;;17.07;100.00;98157.22;5073081;28;20238;-64
2021/08/19 04:03:23;;;;;;;1.80;1.70;;;;;;;17.06;100.00;98147.53;5073077;28;20719;-64
2021/08/19 04:05:49;;;;;;;1.70;1.60;;;;;;;17.07;100.00;98143.88;5073142;28;20211;-64
2021/08/19 04:08:16;;;;;;;1.67;1.53;;;;;;;17.05;100.00;98148.53;5073363;28;20215;-63
2021/08/19 04:10:42;;;;;;;2.03;1.50;;;;;;;17.09;99.90;98144.59;5073053;28;20215;-64
2021/08/19 04:13:09;;;;;;;1.87;1.77;;;;;;;17.04;100.00;98141.50;5072987;28;20211;-64
2021/08/19 04:15:35;;;;;;;1.90;1.70;;;;;;;17.04;100.00;98141.50;5071574;28;20215;-64
2021/08/19 04:18:02;;;;;;;2.10;1.90;;;;;;;17.02;100.00;98148.81;5073130;28;20219;-64
2021/08/19 04:20:30;;;;;;;4.03;1.80;;;;;;;16.99;100.00;98154.44;5073082;28;20234;-64
2021/08/19 04:22:57;;;;;;;1.97;1.70;;;;;;;16.98;100.00;98142.09;5073075;28;20212;-64
2021/08/19 04:25:23;;;;;;;3.33;1.50;;;;;;;16.94;100.00;98145.19;5072912;28;20215;-64
2021/08/19 04:27:50;;;;;;;2.00;1.90;;;;;;;16.95;100.00;98145.03;5073071;28;20211;-64
2021/08/19 04:30:16;;;;;;;1.73;1.57;;;;;;;16.91;100.00;98138.31;5072956;28;20215;-64
2021/08/19 04:32:43;;;;;;;1.57;1.47;;;;;;;16.90;99.65;98138.44;5072668;28;20668;-64
2021/08/19 04:35:10;;;;;;;2.53;1.50;;;;;;;16.93;99.45;98139.00;5073033;28;20258;-64
2021/08/19 04:37:38;;;;;;;1.70;1.60;;;;;;;16.99;99.49;98143.75;5072663;28;20690;-64
2021/08/19 04:40:06;;;;;;;1.70;1.60;;;;;;;17.04;99.33;98136.16;5072817;28;20218;-64
2021/08/19 04:42:32;;;;;;;2.20;1.37;;;;;;;17.05;99.92;98139.66;5071576;28;20215;-64
2021/08/19 04:44:59;;;;;;;1.60;1.50;;;;;;;17.05;100.00;98139.66;5073039;28;20212;-64
2021/08/19 04:47:25;;;;;;;1.70;1.60;;;;;;;17.09;99.64;98141.91;5073554;28;20278;-64
2021/08/19 04:49:52;;;;;;;1.63;1.50;;;;;;;17.10;99.38;98143.59;5076969;28;20576;-64
2021/08/19 04:52:18;;;;;;;1.80;1.70;;;;;;;17.12;99.72;98146.13;5076923;28;20553;-64
2021/08/19 04:54:46;;;;;;;1.87;1.57;;;;;;;17.13;99.97;98148.63;5071682;28;20220;-64
2021/08/19 04:57:12;;;;;;;1.40;1.30;;;;;;;17.14;100.00;98147.63;5065827;28;20218;-64
2021/08/19 04:59:39;;;;;;;1.30;1.20;;;;;;;17.16;99.93;98153.69;5063885;28;20222;-64
2021/08/19 05:02:05;;;;;;;1.73;1.47;;;;;;;17.18;99.80;98149.03;5072875;28;20231;-64
2021/08/19 05:04:32;;;;;;;1.50;1.40;;;;;;;17.22;99.54;98154.91;5060997;28;20222;-64
2021/08/19 05:06:58;;;;;;;1.63;1.43;;;;;;;17.24;99.47;98167.16;5067175;28;20693;-64
2021/08/19 05:09:25;;;;;;;1.47;1.37;;;;;;;17.27;99.17;98168.69;5068106;28;20219;-64
2021/08/19 05:11:53;;;;;;;1.50;1.40;;;;;;;17.29;98.66;98167.56;5060146;28;20235;-64
2021/08/19 05:14:19;;;;;;;1.47;1.37;;;;;;;17.31;98.82;98170.91;5056077;28;20677;-64
2021/08/19 05:16:45;;;;;;;4.13;1.33;;;;;;;17.36;98.75;98173.13;5056016;28;20219;-64
2021/08/19 05:19:12;;;;;;;1.53;1.43;;;;;;;17.39;98.30;98184.44;5056198;28;20215;-64
2021/08/19 05:21:39;;;;;;;1.60;1.50;;;;;;;17.45;97.76;98183.84;5056180;28;20243;-64
2021/08/19 05:24:06;;;;;;;2.20;1.80;;;;;;;17.47;97.51;98181.84;5056172;28;20219;-64
2021/08/19 05:26:32;;;;;;;1.50;1.40;;;;;;;17.49;97.12;98184.38;5056277;28;20212;-64
2021/08/19 05:29:00;;;;;;;1.93;1.50;;;;;;;17.51;96.85;98185.94;5074858;28;20219;-64
2021/08/19 05:31:26;;;;;;;1.20;1.10;;;;;;;17.54;96.76;98185.63;5060660;28;20220;-65
2021/08/19 05:33:54;;;;;;;3.00;1.70;;;;;;;17.62;95.19;98196.41;5054338;28;20212;-64
2021/08/19 05:36:21;;;;;;;2.20;1.50;;;;;;;17.66;93.07;98192.44;5056573;28;20215;-64
2021/08/19 05:38:47;;;;;;;1.47;1.37;;;;;;;17.63;94.00;98197.25;5056078;28;20231;-64
2021/08/19 05:41:14;;;;;;;2.70;1.67;;;;;;;17.66;94.05;98203.16;5056014;28;20232;-64
2021/08/19 05:43:40;;;;;;;2.57;1.60;;;;;;;17.64;94.60;98197.13;5056041;28;20592;-64
2021/08/19 05:46:09;;;;;;;4.73;1.57;;;;;;;17.64;95.13;98199.78;5055988;28;20211;-62
2021/08/19 05:48:35;;;;;;;1.77;1.67;;;;;;;17.67;95.64;98198.66;5055642;28;20212;-63
2021/08/19 05:51:02;;;;;;;1.70;1.60;;;;;;;17.70;95.18;98204.53;5055654;28;20212;-63
2021/08/19 05:53:29;;;;;;;1.90;1.70;;;;;;;17.74;94.90;98203.25;5055883;28;20211;-63
2021/08/19 05:55:55;;;;;;;1.90;1.70;;;;;;;17.76;95.27;98203.94;5055808;28;20204;-63
2021/08/19 05:58:21;;;;;;;2.13;1.90;;;;;;;17.74;95.09;98211.25;5055571;28;20219;-63
2021/08/19 06:00:49;;;;;;;1.90;1.60;;;;;;;17.77;94.89;98210.97;5053315;28;20227;-63
2021/08/19 06:03:17;;;;;;;3.80;1.90;;;;;;;17.83;94.09;98214.88;5055234;28;20291;-63
2021/08/19 06:05:44;;;;;;;1.93;1.73;;;;;;;17.83;94.76;98210.38;5055544;28;20205;-63
2021/08/19 06:08:10;;;;;;;3.13;2.00;;;;;;;17.81;92.95;98212.34;5055874;28;20212;-63
2021/08/19 06:10:37;;;;;;;1.67;1.57;;;;;;;17.86;92.99;98203.91;5055503;28;20211;-63
2021/08/19 06:13:03;;;;;;;2.37;1.70;;;;;;;17.92;93.11;98209.47;5055262;28;20287;-63
2021/08/19 06:15:30;;;;;;;3.07;1.70;;;;;;;18.07;93.60;98213.34;5055157;28;20211;-63
2021/08/19 06:17:56;;;;;;;1.80;1.70;;;;;;;18.17;92.28;98207.91;5055456;28;20211;-63
2021/08/19 06:20:25;;;;;;;2.67;1.60;;;;;;;18.32;91.52;98212.63;5055412;28;20215;-64
2021/08/19 06:22:52;;;;;;;1.70;1.60;;;;;;;18.47;90.88;98207.59;5055215;28;20255;-63
2021/08/19 06:25:19;;;;;;;1.70;1.60;;;;;;;18.60;90.33;98208.03;5054702;28;20223;-63
2021/08/19 06:27:46;;;;;;;1.60;1.50;;;;;;;18.72;89.78;98204.94;5062836;28;20203;-62
2021/08/19 06:30:14;;;;;;;2.27;1.57;;;;;;;18.85;87.60;98210.78;5075169;28;20211;-63
2021/08/19 06:32:40;;;;;;;1.60;1.50;;;;;;;18.95;86.89;98206.16;5075120;28;20215;-63
2021/08/19 06:35:08;;;;;;;2.43;1.90;;;;;;;19.07;84.89;98210.25;5075083;28;20231;-62
2021/08/19 06:37:36;;;;;;;1.67;1.57;;;;;;;19.09;83.72;98210.09;5074601;28;20218;-63
2021/08/19 06:40:03;;;;;;;1.73;1.63;;;;;;;19.22;83.08;98206.06;5074955;28;20208;-63
2021/08/19 06:42:30;;;;;;;1.73;1.50;;;;;;;19.25;82.96;98213.75;5074474;28;20750;-63
2021/08/19 06:44:56;;;;;;;1.70;1.60;;;;;;;19.27;82.59;98211.75;5074596;28;20207;-63
2021/08/19 06:47:23;;;;;;;1.67;1.57;;;;;;;19.30;82.45;98208.78;5074756;28;20212;-63
2021/08/19 06:49:49;;;;;;;1.67;1.57;;;;;;;19.40;82.58;98208.66;5074343;28;20693;-63
2021/08/19 06:52:16;;;;;;;2.47;1.80;;;;;;;19.47;81.74;98207.88;5072891;28;20211;-63
2021/08/19 06:54:44;;;;;;;2.17;1.97;;;;;;;19.58;82.14;98218.31;5074684;28;20207;-63
2021/08/19 06:57:10;;;;;;;1.70;1.60;;;;;;;19.69;82.25;98209.97;5073631;28;20710;-63
2021/08/19 06:59:37;;;;;;;2.57;1.93;;;;;;;19.84;82.21;98216.44;5072681;28;20576;-63
2021/08/19 07:02:04;;;;;;;2.73;2.00;;;;;;;19.85;79.25;98215.44;5073557;28;20594;-63
2021/08/19 07:04:30;;;;;;;1.90;1.60;;;;;;;19.92;80.43;98213.78;5074763;28;20213;-63
2021/08/19 07:06:56;;;;;;;1.87;1.77;;;;;;;20.05;80.89;98207.97;5074343;28;20209;-63
2021/08/19 07:09:23;;;;;;;1.80;1.70;;;;;;;20.11;80.45;98213.53;5074004;28;20207;-63
2021/08/19 07:11:51;;;;;;;2.27;1.90;;;;;;;20.19;78.72;98213.53;5072484;28;20207;-63
2021/08/19 07:14:17;;;;;;;2.27;2.03;;;;;;;20.23;78.85;98212.22;5073578;28;20208;-63
2021/08/19 07:16:44;;;;;;;1.93;1.63;;;;;;;20.31;78.27;98209.56;5073808;28;20419;-63
2021/08/19 07:19:11;;;;;;;1.90;1.80;;;;;;;20.35;78.42;98208.22;5071990;28;20546;-62
2021/08/19 07:21:37;;;;;;;2.77;1.80;;;;;;;20.40;78.52;98211.25;5073880;28;20590;-63
2021/08/19 07:24:05;;;;;;;1.93;1.80;;;;;;;20.55;76.99;98216.81;5074134;28;20203;-63
2021/08/19 07:26:31;;;;;;;2.80;1.70;;;;;;;20.56;77.27;98213.97;5074084;28;20207;-63
2021/08/19 07:28:59;;;;;;;1.73;1.60;;;;;;;20.59;75.76;98213.63;5073862;28;20294;-63
2021/08/19 07:31:25;;;;;;;2.03;1.80;;;;;;;20.67;76.43;98207.44;5073974;28;20219;-63
2021/08/19 07:33:52;;;;;;;1.87;1.77;;;;;;;20.64;76.53;98205.94;5073733;28;20219;-63
2021/08/19 07:36:20;;;;;;;1.90;1.50;;;;;;;20.75;76.75;98213.66;5073785;28;20225;-63
2021/08/19 07:38:47;;;;;;;1.87;1.67;;;;;;;20.87;76.46;98215.00;5073712;28;20290;-63
2021/08/19 07:41:13;;;;;;;2.10;1.90;;;;;;;20.95;75.81;98220.41;5073391;28;20207;-63
2021/08/19 07:43:40;;;;;;;2.23;2.03;;;;;;;20.88;74.40;98222.09;5072189;28;20228;-63
2021/08/19 07:46:08;;;;;;;2.10;1.57;;;;;;;20.73;74.55;98215.66;5073481;28;20306;-63
2021/08/19 07:48:34;;;;;;;1.70;1.60;;;;;;;20.78;75.97;98216.00;5073380;28;20218;-63
2021/08/19 07:51:00;;;;;;;2.90;1.80;;;;;;;20.82;75.88;98221.88;5073535;28;20235;-63
2021/08/19 07:53:27;;;;;;;1.63;1.43;;;;;;;20.89;75.78;98215.69;5073420;28;20220;-63
2021/08/19 07:55:53;;;;;;;2.77;1.67;;;;;;;20.99;74.52;98213.69;5073081;28;20209;-63
2021/08/19 07:58:20;;;;;;;2.67;1.60;;;;;;;21.09;74.09;98218.88;5073368;28;20223;-63
2021/08/19 08:00:46;;;;;;;1.50;1.33;;;;;;;21.21;73.83;98215.66;5073327;28;20217;-63
2021/08/19 08:03:14;;;;;;;1.67;1.57;;;;;;;21.37;73.30;98220.19;5073004;28;20314;-63
2021/08/19 08:05:41;;;;;;;1.63;1.33;;;;;;;21.51;72.01;98217.63;5072989;28;20207;-63
2021/08/19 08:08:10;;;;;;;1.83;1.40;;;;;;;21.49;71.69;98219.66;5073242;28;20218;-64
2021/08/19 08:10:38;;;;;;;2.30;1.70;;;;;;;21.09;71.73;98222.41;5071379;28;20274;-63
2021/08/19 08:13:05;;;;;;;2.03;1.80;;;;;;;21.00;73.18;98228.81;5073042;28;20276;-63
2021/08/19 08:15:32;;;;;;;1.50;1.40;;;;;;;20.96;73.41;98227.44;5073165;28;20212;-63
2021/08/19 08:17:58;;;;;;;1.73;1.60;;;;;;;20.77;75.04;98227.75;5073196;28;20213;-63
2021/08/19 08:20:26;;;;;;;2.60;1.87;;;;;;;20.75;75.52;98228.94;5072960;28;20208;-63
2021/08/19 08:22:53;;;;;;;2.07;1.70;;;;;;;20.94;74.84;98221.41;5072494;28;20246;-63
2021/08/19 08:25:20;;;;;;;1.53;1.43;;;;;;;21.09;75.05;98227.78;5073144;28;20261;-63
2021/08/19 08:27:59;;;;;;;2.20;1.50;;;;;;;21.30;74.61;98228.09;5073022;28;20201;-63
2021/08/19 08:30:27;;;;;;;2.23;1.70;;;;;;;21.40;73.07;98231.44;5073009;28;20212;-63
2021/08/19 08:32:53;;;;;;;1.93;1.50;;;;;;;21.47;73.21;98223.53;5073128;28;20211;-63
2021/08/19 08:35:20;;;;;;;1.80;1.70;;;;;;;21.33;72.74;98225.06;5072524;28;20240;-63
2021/08/19 08:37:48;;;;;;;2.30;1.57;;;;;;;21.26;73.06;98229.44;5071309;28;20216;-63
2021/08/19 08:40:16;;;;;;;2.83;1.73;;;;;;;21.36;74.23;98230.13;5072780;28;20203;-63
2021/08/19 08:42:44;;;;;;;1.50;1.40;;;;;;;21.53;74.64;98225.53;5072557;28;20285;-63
2021/08/19 08:45:11;;;;;;;2.37;1.47;;;;;;;21.72;71.58;98230.56;5072918;28;20207;-63
2021/08/19 08:47:40;;;;;;;2.33;1.60;;;;;;;22.02;70.82;98227.94;5073050;28;20207;-63
2021/08/19 08:50:07;;;;;;;1.77;1.50;;;;;;;22.25;69.94;98223.41;5072966;28;20218;-63
2021/08/19 08:52:35;;;;;;;2.90;2.07;;;;;;;22.35;68.73;98229.44;5072498;28;20218;-63
2021/08/19 08:55:03;;;;;;;2.07;1.70;;;;;;;22.30;67.44;98221.03;5072661;28;20852;-63
2021/08/19 08:57:30;;;;;;;1.53;1.37;;;;;;;22.36;68.79;98228.41;5072656;28;20214;-63
2021/08/19 08:59:57;;;;;;;1.87;1.70;;;;;;;22.53;68.68;98230.03;5072918;28;20583;-63
2021/08/19 09:02:23;;;;;;;2.60;1.63;;;;;;;22.76;68.27;98230.88;5071057;28;20231;-63
2021/08/19 09:05:12;;;;;;;1.47;1.33;;;;;;;22.92;66.62;98222.66;5072840;28;20575;-63
2021/08/19 09:07:39;;;;;;;1.50;1.40;;;;;;;23.05;66.03;98225.56;5072737;28;20579;-63
2021/08/19 09:10:08;;;;;;;1.93;1.47;;;;;;;23.16;64.31;98229.72;5072382;28;20456;-63
2021/08/19 09:12:39;;;;;;;1.80;1.67;;;;;;;23.24;64.62;98226.97;5072756;28;20207;-63
2021/08/19 09:15:10;;;;;;;1.53;1.20;;;;;;;23.34;64.95;98230.25;5072492;28;20670;-64
2021/08/19 09:17:44;;;;;;;1.67;1.40;;;;;;;23.36;64.97;98230.91;5072652;28;20583;-64
2021/08/19 09:20:13;;;;;;;2.37;1.30;;;;;;;23.24;62.44;98233.22;5072529;28;20257;-64
2021/08/19 09:22:54;;;;;;;1.67;1.43;;;;;;;23.11;63.80;98232.13;5072235;28;20241;-64
2021/08/19 09:25:28;;;;;;;1.80;1.30;;;;;;;23.08;64.38;98227.94;5072628;28;20211;-63
2021/08/19 09:28:17;;;;;;;1.77;1.10;;;;;;;23.04;63.07;98226.59;5070519;28;20680;-64
2021/08/19 09:30:47;;;;;;;1.90;1.30;;;;;;;23.01;63.56;98226.97;5072643;28;20231;-64
2021/08/19 09:33:16;;;;;;;1.40;1.10;;;;;;;23.10;63.39;98223.19;5072590;28;20218;-64
2021/08/19 09:35:43;;;;;;;3.60;1.20;;;;;;;23.23;64.06;98219.91;5074540;28;20236;-64
2021/08/19 09:38:13;;;;;;;1.43;1.20;;;;;;;23.37;63.37;98217.25;5076149;28;20223;-64
2021/08/19 09:40:42;;;;;;;1.57;1.00;;;;;;;23.58;62.60;98203.84;5076115;28;20211;-64
2021/08/19 09:43:08;;;;;;;0.90;0.80;;;;;;;23.77;57.25;98214.09;5076004;28;20595;-64
2021/08/19 09:45:44;;;;;;;0.57;0.50;;;;;;;23.79;57.00;98206.66;5076011;28;20219;-64
2021/08/19 09:48:13;;;;;;;0.70;0.70;;;;;;;23.85;56.53;98211.31;5075908;28;20630;-64
2021/08/19 09:50:40;;;;;;;1.13;0.90;;;;;;;24.04;57.62;98210.78;5075894;28;20219;-64
2021/08/19 09:53:26;;;;;;;1.07;0.87;;;;;;;24.09;56.07;98202.91;5075870;28;20203;-64
2021/08/19 09:55:54;;;;;;;1.13;0.87;;;;;;;24.15;56.02;98202.16;5074945;28;20585;-63
2021/08/19 09:58:32;;;;;;;1.10;1.00;;;;;;;24.09;53.28;98202.91;5075775;28;20249;-64
2021/08/19 10:00:59;;;;;;;1.57;1.07;;;;;;;24.19;54.30;98200.75;5075489;28;20212;-64
2021/08/19 10:03:26;;;;;;;1.33;1.00;;;;;;;24.41;54.02;98201.66;5075558;28;20239;-65
2021/08/19 10:05:54;;;;;;;1.07;0.97;;;;;;;24.53;55.32;98206.38;5075709;28;20212;-64
2021/08/19 10:08:20;;;;;;;1.50;0.90;;;;;;;24.64;54.39;98205.06;5075518;28;20215;-64
2021/08/19 10:10:48;;;;;;;0.70;0.70;;;;;;;24.61;53.95;98200.88;5075290;28;20215;-65
2021/08/19 10:13:16;;;;;;;0.90;0.90;;;;;;;24.49;54.32;98201.50;5075590;28;20214;-64
2021/08/19 10:15:47;;;;;;;1.10;0.90;;;;;;;24.36;55.38;98199.53;5075212;28;20677;-64
2021/08/19 10:18:15;;;;;;;1.20;0.90;;;;;;;24.25;55.78;98188.38;5075347;28;20211;-64
2021/08/19 10:20:43;;;;;;;0.73;0.70;;;;;;;24.11;55.96;98198.19;5073847;28;20212;-64
2021/08/19 10:23:13;;;;;;;1.00;0.80;;;;;;;24.02;57.04;98196.59;5075172;28;20235;-63
2021/08/19 10:25:40;;;;;;;1.13;0.90;;;;;;;23.85;57.42;98200.53;5075246;28;20203;-64
2021/08/19 10:28:15;;;;;;;1.27;1.13;;;;;;;23.67;58.42;98202.75;5075108;28;20208;-64
2021/08/19 10:30:54;;;;;;;1.30;1.10;;;;;;;23.54;59.12;98191.75;5075225;28;20257;-64
2021/08/19 10:33:44;;;;;;;1.50;1.00;;;;;;;23.48;59.73;98191.66;5074823;28;20241;-64
2021/08/19 10:36:46;;;;;;;1.00;0.90;;;;;;;23.42;58.31;98195.91;5075114;28;20207;-64
2021/08/19 10:39:49;;;;;;;1.00;0.90;;;;;;;23.35;58.92;98197.69;5075207;28;20207;-64
2021/08/19 10:42:31;;;;;;;1.20;1.03;;;;;;;23.29;60.35;98195.72;5074683;28;20209;-64
2021/08/19 10:44:57;;;;;;;2.00;1.30;;;;;;;23.16;59.84;98192.81;5074589;28;20215;-64
2021/08/19 10:47:37;;;;;;;2.33;1.40;;;;;;;22.98;59.85;98196.84;5073286;28;20211;-64
2021/08/19 10:50:26;;;;;;;1.40;1.30;;;;;;;22.77;61.14;98194.84;5074902;28;20212;-64
2021/08/19 10:52:52;;;;;;;2.17;1.10;;;;;;;22.66;62.04;98192.56;5074568;28;20208;-64
2021/08/19 10:55:20;;;;;;;2.23;1.30;;;;;;;22.60;63.19;98189.72;5074738;28;20290;-64
2021/08/19 10:57:48;;;;;;;1.50;1.30;;;;;;;22.54;63.29;98193.13;5074646;28;20215;-64
2021/08/19 11:00:15;;;;;;;1.27;1.17;;;;;;;22.52;63.04;98187.94;5074642;28;20210;-64
2021/08/19 11:02:44;;;;;;;1.23;1.13;;;;;;;22.64;64.11;98185.66;5074181;28;20235;-64
2021/08/19 11:05:12;;;;;;;1.80;1.50;;;;;;;22.82;63.97;98194.28;5074287;28;20207;-64
2021/08/19 11:07:46;;;;;;;1.30;1.10;;;;;;;22.94;63.31;98188.28;5074261;28;20738;-64
2021/08/19 11:10:19;;;;;;;1.30;1.20;;;;;;;23.10;63.08;98193.53;5074380;28;20680;-64
2021/08/19 11:12:46;;;;;;;1.77;1.33;;;;;;;23.10;63.57;98188.13;5072836;28;20222;-64
2021/08/19 11:15:13;;;;;;;2.60;1.30;;;;;;;23.18;64.32;98189.94;5074245;28;20230;-64
2021/08/19 11:17:39;;;;;;;1.53;1.43;;;;;;;23.23;64.00;98184.84;5074089;28;20212;-64
2021/08/19 11:20:28;;;;;;;1.40;1.20;;;;;;;23.30;63.35;98180.38;5074164;28;20208;-64
2021/08/19 11:23:07;;;;;;;2.23;1.30;;;;;;;23.42;63.40;98178.91;5073724;28;20276;-64
2021/08/19 11:25:36;;;;;;;1.00;1.00;;;;;;;23.48;62.67;98187.09;5074121;28;20203;-64
2021/08/19 11:28:13;;;;;;;1.50;1.40;;;;;;;23.57;63.05;98180.59;5074004;28;20204;-64
2021/08/19 11:30:42;;;;;;;2.23;1.40;;;;;;;23.64;63.31;98176.13;5073708;28;20211;-64
2021/08/19 11:33:11;;;;;;;1.83;1.53;;;;;;;23.74;62.29;98192.88;5073733;28;20583;-64
2021/08/19 11:35:39;;;;;;;1.30;1.20;;;;;;;23.77;59.20;98183.56;5073584;28;20227;-64